Current Weather

Yamaguchi Ube

Yamaguchi Ube, Japan (RJDC)

Report from: Tuesday, April 23, 2024 5:00 PM JST
Current time: Tuesday, April 23, 2024 5:25 PM JST

Nearby weather – Weather history – Daily summaries
Weather forecast

Present weatherLight rain showers, mist
Temperature17.0°C (62.6°F)
Dew point17.0°C (62.6°F)
Winds 3 kts (1.5 m/s, 3.5 mph) Vrb
Winds variableWinds variable from South (180°) to West (270°)
Visibility2.2 mi. (3.5 km)
Clouds Few clouds 200 ft. (61 m)
Scattered clouds 300 ft. (91 m)
Ceiling: Broken clouds 600 ft. (183 m)
Altimeter29.74 in.Hg (1007 mB)
Relative humidity100 %
Density altitude713 ft. (217 m)
Flight conditions Instrument Meteorological Conditions
Raw dataRJDC 230800Z 24003KT 180V270 3500 -SHRA BR FEW002 SCT003 BKN006 17/17 Q1007
An error has occurred. This application may no longer respond until reloaded. Reload 🗙